Time;durP1;ratioP1;P1;durP2;ratioP2;P2;SDS_P1;SDS_P2;PMS_P1;PMS_P2;Temp;Humidity;BMP_temperature;BMP_pressure;BME280_temperature;BME280_humidity;BME280_pressure;Samples;Min_cycle;Max_cycle;Signal;HPM_P1;HPM_P2
2021/12/06 00:02:10;;;;;;;48.57;30.13;;;4.60;99.90;;;;;;648329;222;26518;-77
2021/12/06 00:04:38;;;;;;;45.93;28.70;;;4.60;99.90;;;;;;648131;221;26780;-77
2021/12/06 00:07:08;;;;;;;48.27;29.67;;;4.60;99.90;;;;;;648335;221;26582;-77
2021/12/06 00:09:35;;;;;;;41.93;26.73;;;4.60;99.90;;;;;;648267;221;26602;-77
2021/12/06 00:12:03;;;;;;;42.53;27.67;;;4.60;99.90;;;;;;648401;222;26534;-77
2021/12/06 00:14:30;;;;;;;45.23;28.70;;;4.50;99.90;;;;;;648390;217;26798;-77
2021/12/06 00:16:57;;;;;;;42.80;27.87;;;4.50;99.90;;;;;;648401;222;26835;-77
2021/12/06 00:19:25;;;;;;;46.27;29.27;;;4.60;99.90;;;;;;648387;221;26594;-77
2021/12/06 00:21:52;;;;;;;43.73;27.00;;;4.60;99.90;;;;;;648403;221;26881;-78
2021/12/06 00:24:20;;;;;;;44.47;28.63;;;4.50;99.90;;;;;;648378;222;26518;-77
2021/12/06 00:26:48;;;;;;;41.73;27.33;;;4.60;99.90;;;;;;648324;222;26582;-77
2021/12/06 00:29:15;;;;;;;42.83;27.07;;;4.60;99.90;;;;;;648295;218;26771;-77
2021/12/06 00:31:42;;;;;;;43.17;28.03;;;4.70;99.90;;;;;;650227;219;26515;-77
2021/12/06 00:34:13;;;;;;;42.33;26.33;;;4.70;99.90;;;;;;649616;217;26759;-77
2021/12/06 00:36:38;;;;;;;43.17;27.00;;;4.50;99.90;;;;;;648948;221;26564;-77
2021/12/06 00:39:04;;;;;;;46.73;28.73;;;4.30;99.90;;;;;;649119;221;26806;-77
2021/12/06 00:41:32;;;;;;;46.10;26.83;;;4.40;99.90;;;;;;648972;222;26562;-77
2021/12/06 00:44:01;;;;;;;43.63;26.60;;;4.40;99.90;;;;;;649008;222;26638;-77
2021/12/06 00:46:28;;;;;;;42.20;27.17;;;4.20;99.90;;;;;;648924;221;26558;-77
2021/12/06 00:48:56;;;;;;;41.13;26.23;;;4.20;99.90;;;;;;648702;222;26561;-77
2021/12/06 00:51:23;;;;;;;39.03;25.80;;;4.20;99.90;;;;;;648544;222;26525;-77
2021/12/06 00:53:50;;;;;;;42.23;27.93;;;4.20;99.90;;;;;;648562;222;26526;-78
2021/12/06 00:56:17;;;;;;;42.37;27.33;;;4.40;99.90;;;;;;648656;222;26783;-77
2021/12/06 00:58:44;;;;;;;38.90;27.13;;;4.50;99.90;;;;;;648625;222;26531;-77
2021/12/06 01:01:12;;;;;;;35.73;24.33;;;4.60;99.90;;;;;;648661;221;26828;-78
2021/12/06 01:03:39;;;;;;;41.30;25.17;;;4.50;99.90;;;;;;648649;222;26513;-78
2021/12/06 01:06:06;;;;;;;37.23;24.40;;;4.40;99.90;;;;;;648501;221;26764;-78
2021/12/06 01:08:33;;;;;;;33.90;24.17;;;4.50;99.90;;;;;;648284;217;26579;-78
2021/12/06 01:11:00;;;;;;;36.23;23.27;;;4.60;99.90;;;;;;648296;222;26788;-78
2021/12/06 01:13:28;;;;;;;38.33;25.73;;;4.60;99.90;;;;;;648392;222;26562;-78
2021/12/06 01:15:55;;;;;;;35.07;23.93;;;4.60;99.90;;;;;;648330;222;26791;-78
2021/12/06 01:18:23;;;;;;;34.30;23.10;;;4.40;99.90;;;;;;648300;222;26590;-78
2021/12/06 01:20:57;;;;;;;35.23;24.17;;;4.50;99.90;;;;;;648379;222;26541;-78
2021/12/06 01:23:22;;;;;;;33.90;22.53;;;4.40;99.90;;;;;;648277;221;26538;-78
2021/12/06 01:26:07;;;;;;;35.33;23.23;;;4.50;99.90;;;;;;648601;221;26541;-78
2021/12/06 01:28:36;;;;;;;34.77;23.00;;;4.50;99.90;;;;;;647204;222;26839;-78
2021/12/06 01:30:57;;;;;;;31.53;22.60;;;4.50;99.90;;;;;;646765;221;26828;-78
2021/12/06 01:41:06;;;;;;;32.03;21.93;;;4.50;99.90;;;;;;648520;219;26490;-78
2021/12/06 01:43:34;;;;;;;31.23;22.03;;;4.40;99.90;;;;;;650087;221;26520;-78
2021/12/06 01:46:01;;;;;;;37.07;24.37;;;4.40;99.90;;;;;;649492;221;26502;-78
2021/12/06 01:48:28;;;;;;;30.87;22.53;;;4.40;99.90;;;;;;649292;221;26606;-78
2021/12/06 01:50:55;;;;;;;33.90;22.53;;;4.30;99.90;;;;;;649100;221;26571;-78
2021/12/06 01:53:22;;;;;;;29.33;21.83;;;4.30;99.90;;;;;;648954;222;26614;-78
2021/12/06 01:55:50;;;;;;;33.10;20.87;;;4.30;99.90;;;;;;649045;221;26846;-78
2021/12/06 01:58:17;;;;;;;26.83;20.47;;;4.20;99.90;;;;;;649000;221;26586;-78
2021/12/06 02:00:44;;;;;;;28.40;20.67;;;4.20;99.90;;;;;;648791;217;26924;-78
2021/12/06 02:03:11;;;;;;;30.30;21.20;;;4.20;99.90;;;;;;648460;221;26527;-78
2021/12/06 02:05:38;;;;;;;28.23;20.63;;;4.10;99.90;;;;;;648665;222;27243;-78
2021/12/06 02:08:06;;;;;;;27.63;20.90;;;4.20;99.90;;;;;;648689;222;26515;-78
2021/12/06 02:10:33;;;;;;;30.87;21.23;;;4.10;99.90;;;;;;648724;222;26800;-78
2021/12/06 02:13:00;;;;;;;31.30;21.13;;;4.10;99.90;;;;;;648782;222;26470;-78
2021/12/06 02:15:42;;;;;;;33.33;21.23;;;4.00;99.90;;;;;;648795;222;26780;-78
2021/12/06 02:18:10;;;;;;;30.80;22.50;;;3.90;99.90;;;;;;648281;221;26814;-78
2021/12/06 02:20:37;;;;;;;34.27;22.67;;;3.70;99.90;;;;;;648008;221;26512;-79
2021/12/06 02:23:00;;;;;;;36.17;24.23;;;3.60;99.90;;;;;;648088;221;26794;-79
2021/12/06 02:25:28;;;;;;;36.57;24.53;;;3.10;99.90;;;;;;648408;221;26530;-78
2021/12/06 02:27:56;;;;;;;38.80;25.93;;;3.10;99.90;;;;;;648286;221;26543;-78
2021/12/06 02:30:23;;;;;;;35.70;25.13;;;2.90;99.90;;;;;;648351;221;26513;-79
2021/12/06 02:32:52;;;;;;;38.17;24.43;;;2.90;99.90;;;;;;648375;222;26522;-78
2021/12/06 02:35:20;;;;;;;36.43;25.23;;;2.90;99.90;;;;;;648360;222;26550;-78
2021/12/06 02:37:46;;;;;;;40.47;26.23;;;2.90;99.90;;;;;;648229;222;26572;-78
2021/12/06 02:40:13;;;;;;;39.97;26.93;;;2.90;99.90;;;;;;648321;222;26819;-78
2021/12/06 02:42:42;;;;;;;45.53;28.40;;;2.80;99.90;;;;;;648108;221;26578;-78
2021/12/06 02:45:08;;;;;;;42.43;27.30;;;2.90;99.90;;;;;;648217;221;27186;-79
2021/12/06 02:47:35;;;;;;;41.13;26.77;;;2.90;99.90;;;;;;648732;222;26545;-78
2021/12/06 02:50:07;;;;;;;37.20;25.67;;;2.80;99.90;;;;;;648765;222;26788;-79
2021/12/06 02:52:30;;;;;;;43.17;27.97;;;2.90;99.90;;;;;;648359;221;26545;-78
2021/12/06 02:54:58;;;;;;;40.27;27.50;;;2.90;99.90;;;;;;650713;220;26771;-79
2021/12/06 02:57:34;;;;;;;37.40;26.40;;;3.00;99.90;;;;;;649966;221;26486;-79
2021/12/06 02:59:51;;;;;;;43.37;27.97;;;3.10;99.90;;;;;;648987;221;26798;-78
2021/12/06 03:02:18;;;;;;;41.90;27.30;;;2.80;99.90;;;;;;649670;221;26562;-78
2021/12/06 03:04:46;;;;;;;42.70;28.13;;;2.90;99.90;;;;;;649371;221;26552;-79
2021/12/06 03:07:15;;;;;;;44.53;28.37;;;2.90;99.90;;;;;;649446;222;26536;-78
2021/12/06 03:09:41;;;;;;;43.87;28.63;;;2.80;99.90;;;;;;649247;221;26569;-78
2021/12/06 03:12:13;;;;;;;44.07;29.60;;;2.80;99.90;;;;;;649199;222;26489;-79
2021/12/06 03:14:40;;;;;;;45.03;28.83;;;3.00;99.90;;;;;;648937;221;26532;-78
2021/12/06 03:17:07;;;;;;;47.43;28.93;;;3.10;99.90;;;;;;649045;221;26530;-78
2021/12/06 03:19:35;;;;;;;41.10;27.80;;;3.40;99.90;;;;;;648833;221;26519;-78
2021/12/06 03:22:02;;;;;;;43.97;28.43;;;3.30;99.90;;;;;;649164;222;26512;-78
2021/12/06 03:24:29;;;;;;;42.80;27.93;;;3.50;99.90;;;;;;649051;221;26484;-78
2021/12/06 03:26:57;;;;;;;45.93;28.80;;;3.50;99.90;;;;;;649130;221;26487;-79
2021/12/06 03:29:24;;;;;;;41.57;26.63;;;3.60;99.90;;;;;;648733;222;26584;-79
2021/12/06 03:31:51;;;;;;;40.67;27.47;;;3.70;99.90;;;;;;648318;222;26562;-78
2021/12/06 03:34:18;;;;;;;41.03;27.53;;;3.70;99.90;;;;;;648292;222;26822;-79
2021/12/06 03:36:45;;;;;;;40.87;27.47;;;3.50;99.90;;;;;;648308;222;26506;-78
2021/12/06 03:39:20;;;;;;;44.80;29.07;;;3.30;99.90;;;;;;648296;222;26865;-79
2021/12/06 03:41:43;;;;;;;46.13;29.07;;;3.10;99.90;;;;;;647721;221;26510;-79
2021/12/06 03:44:11;;;;;;;39.80;27.23;;;3.10;99.90;;;;;;648359;222;26541;-79
2021/12/06 03:46:39;;;;;;;43.93;28.23;;;3.10;99.90;;;;;;648326;222;26514;-78
2021/12/06 03:49:10;;;;;;;43.53;28.53;;;3.20;99.90;;;;;;648254;222;26862;-78
2021/12/06 03:51:38;;;;;;;41.47;28.33;;;3.40;99.90;;;;;;648337;221;26565;-78
2021/12/06 03:54:05;;;;;;;41.30;27.80;;;3.40;99.90;;;;;;648296;221;27162;-78
2021/12/06 03:56:32;;;;;;;42.40;28.57;;;3.30;99.90;;;;;;648343;222;26514;-78
2021/12/06 03:58:59;;;;;;;42.20;28.93;;;3.30;99.90;;;;;;648317;221;26861;-78
2021/12/06 04:01:26;;;;;;;44.53;29.63;;;3.50;99.90;;;;;;648336;221;26492;-78
2021/12/06 04:03:54;;;;;;;46.87;30.03;;;3.60;99.90;;;;;;648340;221;26842;-78
2021/12/06 04:06:21;;;;;;;40.90;27.47;;;3.60;99.90;;;;;;650192;219;26591;-79
2021/12/06 04:08:49;;;;;;;44.37;28.57;;;3.60;99.90;;;;;;649595;221;26774;-78
2021/12/06 04:11:15;;;;;;;40.00;27.90;;;3.50;99.90;;;;;;649374;221;26530;-78
2021/12/06 04:13:42;;;;;;;43.43;28.90;;;3.60;99.90;;;;;;649295;221;26583;-79
2021/12/06 04:16:10;;;;;;;43.37;28.17;;;3.80;99.90;;;;;;648932;221;26600;-78
2021/12/06 04:18:38;;;;;;;41.93;28.53;;;3.90;99.90;;;;;;649001;222;26593;-79
2021/12/06 04:21:06;;;;;;;45.30;28.93;;;3.80;99.90;;;;;;649005;222;26549;-78
2021/12/06 04:23:34;;;;;;;47.87;29.70;;;3.80;99.90;;;;;;648814;222;26516;-79
2021/12/06 04:26:01;;;;;;;41.70;29.40;;;3.80;99.90;;;;;;648664;222;26524;-78
2021/12/06 04:28:31;;;;;;;42.83;29.37;;;3.80;99.90;;;;;;648666;222;26759;-78
2021/12/06 04:30:56;;;;;;;45.57;30.43;;;3.70;99.90;;;;;;648492;221;26752;-79
2021/12/06 04:33:23;;;;;;;41.83;27.47;;;3.80;99.90;;;;;;648573;217;26519;-79
2021/12/06 04:35:50;;;;;;;42.77;28.27;;;3.80;99.90;;;;;;648677;222;27239;-79
2021/12/06 04:38:17;;;;;;;41.90;28.33;;;3.70;99.90;;;;;;648658;222;26759;-80
2021/12/06 04:40:45;;;;;;;43.23;27.90;;;3.40;99.90;;;;;;648559;222;26813;-78
2021/12/06 04:43:12;;;;;;;40.93;27.70;;;3.30;99.90;;;;;;648327;222;26514;-78
2021/12/06 04:45:39;;;;;;;42.00;28.97;;;3.40;99.90;;;;;;648359;222;26788;-78
2021/12/06 04:48:06;;;;;;;41.33;27.87;;;3.60;99.90;;;;;;648285;222;26561;-79
2021/12/06 04:50:34;;;;;;;43.60;27.37;;;3.70;99.90;;;;;;648361;222;26563;-78
2021/12/06 04:53:02;;;;;;;43.47;28.30;;;3.80;99.90;;;;;;648339;222;26554;-78
2021/12/06 04:55:35;;;;;;;39.23;28.10;;;3.70;99.90;;;;;;648588;221;26516;-79
2021/12/06 04:58:02;;;;;;;44.37;27.67;;;3.70;99.90;;;;;;648642;221;26541;-79
2021/12/06 05:00:32;;;;;;;40.50;26.83;;;3.60;99.90;;;;;;648370;221;26569;-78
2021/12/06 05:03:00;;;;;;;42.87;28.53;;;3.60;99.90;;;;;;648224;221;26582;-79
2021/12/06 05:05:29;;;;;;;41.93;28.50;;;3.70;99.90;;;;;;648306;222;26558;-79
2021/12/06 05:07:56;;;;;;;41.37;27.03;;;3.60;99.90;;;;;;648091;221;26800;-76
2021/12/06 05:10:23;;;;;;;38.77;27.80;;;3.80;99.90;;;;;;648218;221;26582;-76
2021/12/06 05:12:50;;;;;;;41.57;26.63;;;3.90;99.90;;;;;;648393;222;26522;-76
2021/12/06 05:15:18;;;;;;;39.33;26.97;;;4.20;99.90;;;;;;648434;221;26561;-79
2021/12/06 05:17:46;;;;;;;39.53;27.63;;;4.20;99.90;;;;;;650057;218;26571;-76
2021/12/06 05:20:14;;;;;;;44.83;27.17;;;4.20;99.90;;;;;;649676;221;26533;-79
2021/12/06 05:22:42;;;;;;;40.07;27.73;;;4.20;99.90;;;;;;649333;221;26610;-79
2021/12/06 05:25:10;;;;;;;38.13;26.10;;;4.20;99.90;;;;;;649261;221;26550;-76
2021/12/06 05:27:37;;;;;;;38.23;26.90;;;3.80;99.90;;;;;;648923;221;26560;-76
2021/12/06 05:30:04;;;;;;;36.23;26.33;;;3.70;99.90;;;;;;648874;221;26894;-79
2021/12/06 05:32:34;;;;;;;43.07;27.00;;;3.60;99.90;;;;;;648887;221;26582;-79
2021/12/06 05:35:05;;;;;;;39.70;26.70;;;3.50;99.90;;;;;;648629;221;26838;-79
2021/12/06 05:37:28;;;;;;;39.93;26.27;;;3.30;99.90;;;;;;648442;221;26528;-77
2021/12/06 05:39:56;;;;;;;43.23;27.47;;;3.20;99.90;;;;;;648634;217;27420;-77
2021/12/06 05:42:23;;;;;;;41.03;27.77;;;3.40;99.90;;;;;;648663;222;26527;-77
2021/12/06 05:44:50;;;;;;;39.70;26.63;;;3.50;99.90;;;;;;648662;222;26776;-77
2021/12/06 05:47:17;;;;;;;43.20;26.13;;;3.60;99.90;;;;;;648745;221;26499;-77
2021/12/06 05:49:44;;;;;;;41.57;27.67;;;3.70;99.90;;;;;;648715;222;26841;-77
2021/12/06 05:52:12;;;;;;;39.80;27.27;;;3.70;99.90;;;;;;648690;222;26492;-77
2021/12/06 05:54:39;;;;;;;44.23;27.70;;;3.50;99.90;;;;;;648413;222;26846;-77
2021/12/06 05:57:06;;;;;;;38.53;25.93;;;3.60;99.90;;;;;;638921;222;26563;-77
2021/12/06 05:59:33;;;;;;;37.70;27.10;;;3.60;99.90;;;;;;648403;222;26820;-77
2021/12/06 06:02:00;;;;;;;39.10;26.90;;;3.60;99.90;;;;;;648371;222;26557;-77
2021/12/06 06:04:27;;;;;;;38.77;25.50;;;3.70;99.90;;;;;;648374;222;26773;-77
2021/12/06 06:06:55;;;;;;;41.10;27.20;;;4.00;99.90;;;;;;648286;222;26529;-77
2021/12/06 06:09:23;;;;;;;39.43;26.90;;;3.90;99.90;;;;;;648244;222;26599;-77
2021/12/06 06:11:51;;;;;;;38.53;26.10;;;3.70;99.90;;;;;;648177;222;26540;-78
2021/12/06 06:14:19;;;;;;;38.77;25.10;;;3.70;99.90;;;;;;648188;222;26534;-78
2021/12/06 06:16:50;;;;;;;38.53;25.70;;;3.70;99.90;;;;;;648208;222;26589;-78
2021/12/06 06:19:14;;;;;;;40.40;25.50;;;3.60;99.90;;;;;;647879;221;26590;-78
2021/12/06 06:21:41;;;;;;;42.30;27.27;;;3.50;99.90;;;;;;648205;221;26777;-78
2021/12/06 06:24:08;;;;;;;39.70;27.07;;;3.50;99.90;;;;;;648394;222;26542;-79
2021/12/06 06:26:35;;;;;;;41.37;27.03;;;3.50;99.90;;;;;;648245;222;26811;-78
2021/12/06 06:29:03;;;;;;;39.63;26.37;;;3.60;99.90;;;;;;649782;219;26608;-78
2021/12/06 06:31:30;;;;;;;39.47;26.83;;;3.60;99.90;;;;;;649643;221;26825;-78
2021/12/06 06:33:57;;;;;;;39.03;26.23;;;3.70;99.90;;;;;;649329;221;26567;-79
2021/12/06 06:36:24;;;;;;;36.50;25.40;;;3.70;99.90;;;;;;649307;221;26784;-78
2021/12/06 06:38:52;;;;;;;37.67;26.93;;;3.80;99.90;;;;;;648947;222;26583;-78
2021/12/06 06:41:20;;;;;;;38.87;27.50;;;3.80;99.90;;;;;;648944;222;26592;-79
2021/12/06 06:43:49;;;;;;;40.67;26.60;;;3.80;99.90;;;;;;648970;222;26546;-79
2021/12/06 06:46:16;;;;;;;39.03;25.30;;;3.80;99.90;;;;;;648811;221;26556;-78
2021/12/06 06:48:44;;;;;;;40.57;27.87;;;4.00;99.90;;;;;;648605;221;26531;-78
2021/12/06 06:51:11;;;;;;;38.77;26.20;;;3.90;99.90;;;;;;648638;217;26515;-78
2021/12/06 06:53:38;;;;;;;41.67;26.70;;;3.70;99.90;;;;;;648665;222;26520;-79
2021/12/06 06:56:06;;;;;;;41.10;26.00;;;3.80;99.90;;;;;;648635;221;26765;-78
2021/12/06 06:58:33;;;;;;;37.70;26.83;;;3.80;99.90;;;;;;648649;218;26544;-79
2021/12/06 07:01:00;;;;;;;42.17;27.20;;;3.80;99.90;;;;;;648596;222;26771;-79
2021/12/06 07:03:31;;;;;;;40.17;26.43;;;3.70;99.90;;;;;;648608;221;26515;-78
2021/12/06 07:05:54;;;;;;;39.07;25.53;;;3.60;99.90;;;;;;648045;221;26795;-78
2021/12/06 07:08:22;;;;;;;41.80;26.90;;;3.70;99.90;;;;;;648244;222;26816;-78
2021/12/06 07:10:51;;;;;;;35.57;25.00;;;3.90;99.90;;;;;;648260;222;26796;-79
2021/12/06 07:13:17;;;;;;;39.37;26.63;;;3.90;99.90;;;;;;648176;221;26771;-79
2021/12/06 07:15:44;;;;;;;39.27;27.00;;;3.90;99.90;;;;;;648284;222;26525;-78
2021/12/06 07:18:11;;;;;;;36.73;26.93;;;4.10;99.90;;;;;;648276;221;26815;-78
2021/12/06 07:20:38;;;;;;;39.43;26.37;;;4.10;99.90;;;;;;648336;221;26573;-78
2021/12/06 07:23:06;;;;;;;36.53;25.67;;;4.10;99.90;;;;;;648333;222;26784;-79
2021/12/06 07:25:34;;;;;;;40.23;26.97;;;4.20;99.90;;;;;;648443;222;26563;-78
2021/12/06 07:28:00;;;;;;;39.97;26.67;;;4.30;99.90;;;;;;648414;221;26749;-78
2021/12/06 07:30:28;;;;;;;37.83;26.57;;;4.40;99.90;;;;;;648246;221;26577;-78
2021/12/06 07:32:56;;;;;;;38.03;26.47;;;4.50;99.90;;;;;;648411;222;26566;-80
2021/12/06 07:35:26;;;;;;;38.50;27.57;;;4.60;99.90;;;;;;639961;222;26757;-78
2021/12/06 07:37:52;;;;;;;37.97;25.50;;;4.80;99.90;;;;;;642917;222;26498;-78
2021/12/06 07:40:19;;;;;;;35.10;24.50;;;4.80;99.90;;;;;;642182;221;26587;-78
2021/12/06 07:42:46;;;;;;;37.33;25.47;;;4.80;99.90;;;;;;642504;222;26520;-78
2021/12/06 07:45:13;;;;;;;36.27;25.03;;;4.90;99.90;;;;;;648391;222;26838;-78
2021/12/06 07:47:41;;;;;;;37.77;25.53;;;5.00;99.90;;;;;;645470;221;26552;-78
2021/12/06 07:50:08;;;;;;;33.87;23.43;;;5.10;99.90;;;;;;646015;222;26803;-80
2021/12/06 07:52:35;;;;;;;36.80;23.37;;;5.10;99.90;;;;;;643110;221;26498;-81
2021/12/06 07:55:03;;;;;;;33.33;24.83;;;5.30;99.90;;;;;;643724;222;26490;-78
2021/12/06 07:57:30;;;;;;;33.77;25.37;;;5.30;99.90;;;;;;642791;222;27182;-78
2021/12/06 07:59:57;;;;;;;35.53;24.27;;;5.00;99.90;;;;;;637675;225;26591;-78
2021/12/06 08:02:25;;;;;;;33.60;23.53;;;4.90;99.90;;;;;;645248;222;26851;-78
2021/12/06 08:05:29;;;;;;;36.97;25.97;;;5.00;99.90;;;;;;647753;222;26556;-78
2021/12/06 08:07:19;;;;;;;33.73;24.10;;;5.00;99.90;;;;;;647022;222;26514;-77
2021/12/06 08:09:49;;;;;;;35.10;23.37;;;5.00;99.90;;;;;;644231;221;26600;-77
2021/12/06 08:12:14;;;;;;;34.67;23.23;;;5.00;99.90;;;;;;639645;221;26578;-78
2021/12/06 08:14:42;;;;;;;34.00;24.27;;;4.90;99.90;;;;;;637557;225;26589;-79
2021/12/06 08:17:10;;;;;;;35.50;23.53;;;4.80;99.90;;;;;;637252;226;26580;-78
2021/12/06 08:19:37;;;;;;;37.63;24.53;;;4.80;99.90;;;;;;641585;221;26590;-79
2021/12/06 08:22:05;;;;;;;37.63;24.47;;;4.90;99.90;;;;;;647372;222;26504;-79
2021/12/06 08:24:32;;;;;;;35.07;24.87;;;4.90;99.90;;;;;;647308;222;26720;-80
2021/12/06 08:26:59;;;;;;;33.27;23.90;;;4.90;99.90;;;;;;643967;222;26513;-79
2021/12/06 08:29:27;;;;;;;34.17;23.80;;;5.00;99.90;;;;;;642976;222;26882;-80
2021/12/06 08:31:53;;;;;;;34.37;24.33;;;5.10;99.90;;;;;;647068;222;26570;-80
2021/12/06 08:34:21;;;;;;;37.47;25.10;;;5.10;99.90;;;;;;640170;222;27258;-79
2021/12/06 08:36:48;;;;;;;32.70;22.97;;;5.20;99.90;;;;;;637339;222;26569;-79
2021/12/06 08:39:16;;;;;;;37.37;24.93;;;5.10;99.90;;;;;;637345;226;26787;-78
2021/12/06 08:41:43;;;;;;;36.63;24.27;;;5.20;99.90;;;;;;637358;226;26763;-79
2021/12/06 08:44:10;;;;;;;30.53;21.00;;;5.30;99.90;;;;;;643667;222;26794;-79
2021/12/06 08:46:37;;;;;;;30.87;22.50;;;5.30;99.90;;;;;;642701;221;26519;-78
2021/12/06 08:49:05;;;;;;;32.60;22.80;;;5.40;99.90;;;;;;637332;226;26820;-80
2021/12/06 08:51:34;;;;;;;30.00;21.20;;;5.50;99.90;;;;;;638066;223;26559;-78
2021/12/06 08:54:01;;;;;;;32.63;22.20;;;5.50;99.90;;;;;;643796;222;26579;-79
2021/12/06 08:56:29;;;;;;;32.83;21.33;;;5.40;99.90;;;;;;648411;222;26571;-80
2021/12/06 08:58:57;;;;;;;30.53;22.10;;;5.20;99.90;;;;;;648162;222;26593;-82
2021/12/06 09:01:25;;;;;;;33.37;22.70;;;5.10;99.90;;;;;;647033;222;26574;-80
2021/12/06 09:03:53;;;;;;;30.53;20.70;;;5.10;99.90;;;;;;638008;225;26537;-80
2021/12/06 09:06:20;;;;;;;29.87;19.53;;;5.10;99.90;;;;;;638021;225;26568;-80
2021/12/06 09:08:47;;;;;;;30.97;20.80;;;5.10;99.90;;;;;;647738;221;26587;-80
2021/12/06 09:11:14;;;;;;;30.37;20.37;;;5.30;99.90;;;;;;645991;221;26854;-80
2021/12/06 09:13:41;;;;;;;26.80;19.57;;;5.30;99.90;;;;;;637927;225;26703;-78
2021/12/06 09:16:09;;;;;;;28.07;19.90;;;5.10;99.90;;;;;;637786;225;26754;-80
2021/12/06 09:18:37;;;;;;;29.73;19.87;;;5.00;99.90;;;;;;637593;225;26588;-80
2021/12/06 09:21:03;;;;;;;27.63;19.93;;;5.20;99.90;;;;;;641661;222;27196;-79
2021/12/06 09:23:30;;;;;;;25.47;18.77;;;5.20;99.90;;;;;;644572;222;26564;-81
2021/12/06 09:25:57;;;;;;;27.87;19.50;;;5.20;99.90;;;;;;637633;225;26855;-80
2021/12/06 09:28:25;;;;;;;31.30;21.07;;;5.20;99.90;;;;;;637352;225;26591;-78
2021/12/06 09:30:52;;;;;;;29.90;19.63;;;5.30;99.90;;;;;;646204;222;26804;-80
2021/12/06 09:33:20;;;;;;;30.63;19.87;;;5.60;99.90;;;;;;644363;220;26514;-78
2021/12/06 09:35:48;;;;;;;27.10;19.00;;;5.60;99.90;;;;;;637410;226;26568;-79
2021/12/06 09:38:16;;;;;;;28.77;20.00;;;5.60;99.90;;;;;;637521;226;26576;-78
2021/12/06 09:40:44;;;;;;;25.53;19.43;;;5.80;99.90;;;;;;637756;221;26550;-78
2021/12/06 09:43:11;;;;;;;29.07;19.77;;;5.80;99.90;;;;;;637295;223;26562;-79
2021/12/06 09:45:38;;;;;;;24.90;18.70;;;6.10;99.90;;;;;;637455;226;26555;-78
2021/12/06 09:48:05;;;;;;;27.23;19.20;;;6.20;99.90;;;;;;641676;220;26578;-79
2021/12/06 09:50:33;;;;;;;27.50;18.03;;;6.30;99.90;;;;;;647160;222;26504;-78
2021/12/06 09:53:00;;;;;;;25.40;19.13;;;6.40;99.90;;;;;;646666;222;26518;-78
2021/12/06 09:55:29;;;;;;;24.30;17.50;;;6.40;99.90;;;;;;647078;222;26511;-79
2021/12/06 09:57:56;;;;;;;26.07;18.37;;;6.50;99.90;;;;;;641828;218;26522;-79
2021/12/06 10:00:24;;;;;;;27.17;19.23;;;6.50;99.90;;;;;;638688;221;26579;-80
2021/12/06 10:02:51;;;;;;;28.33;19.63;;;6.40;99.90;;;;;;649088;219;26718;-79
2021/12/06 10:05:18;;;;;;;25.90;18.80;;;6.30;99.90;;;;;;646761;221;26822;-80
2021/12/06 10:07:45;;;;;;;26.90;19.23;;;6.10;99.90;;;;;;638839;222;26508;-80
2021/12/06 10:10:12;;;;;;;27.37;19.70;;;6.20;99.90;;;;;;647588;222;26771;-80
2021/12/06 10:12:41;;;;;;;26.43;19.20;;;6.10;99.90;;;;;;646659;220;26540;-80
2021/12/06 10:15:07;;;;;;;33.30;19.77;;;5.70;99.90;;;;;;637850;225;26752;-79
2021/12/06 10:17:34;;;;;;;29.30;19.33;;;5.40;99.90;;;;;;638014;225;26500;-79
2021/12/06 10:20:01;;;;;;;30.63;20.43;;;5.50;99.90;;;;;;637919;225;26789;-80
2021/12/06 10:22:29;;;;;;;26.50;18.20;;;5.80;99.90;;;;;;637614;225;26586;-78
2021/12/06 10:24:57;;;;;;;27.77;19.27;;;6.00;99.90;;;;;;637636;225;26529;-77
2021/12/06 10:27:25;;;;;;;27.33;18.43;;;6.20;99.90;;;;;;637577;225;26543;-76
2021/12/06 10:29:54;;;;;;;24.37;18.93;;;6.20;99.90;;;;;;642804;222;26631;-74
2021/12/06 10:32:21;;;;;;;27.43;17.40;;;5.80;99.90;;;;;;648260;222;26524;-75
2021/12/06 10:34:49;;;;;;;24.80;17.77;;;5.70;99.90;;;;;;648724;221;26526;-79
2021/12/06 10:37:27;;;;;;;26.20;18.33;;;6.10;99.90;;;;;;647644;221;26558;-76
2021/12/06 10:39:54;;;;;;;23.73;16.80;;;6.00;99.90;;;;;;637398;225;26597;-78
2021/12/06 10:42:29;;;;;;;27.40;17.60;;;5.80;99.90;;;;;;637437;226;26573;-79
2021/12/06 10:44:56;;;;;;;21.70;15.67;;;5.80;99.90;;;;;;637357;226;26793;-78
2021/12/06 10:47:23;;;;;;;21.73;15.63;;;5.60;99.90;;;;;;643014;222;26576;-81
2021/12/06 10:49:51;;;;;;;23.07;17.47;;;5.80;99.90;;;;;;648270;222;26923;-79
2021/12/06 10:52:24;;;;;;;19.90;15.33;;;6.10;99.90;;;;;;648244;222;26494;-80
2021/12/06 10:54:52;;;;;;;20.97;15.90;;;6.30;99.90;;;;;;648265;221;26817;-80
2021/12/06 10:57:18;;;;;;;23.23;16.37;;;6.40;99.90;;;;;;648221;222;26803;-80
2021/12/06 10:59:45;;;;;;;22.80;15.70;;;6.60;99.90;;;;;;648105;222;26824;-79
2021/12/06 11:02:12;;;;;;;23.27;15.87;;;6.70;99.90;;;;;;647984;222;26561;-80
2021/12/06 11:04:40;;;;;;;23.37;16.23;;;6.80;99.90;;;;;;648140;222;26807;-79
2021/12/06 11:07:08;;;;;;;17.63;14.17;;;6.90;99.90;;;;;;648151;221;26558;-79
2021/12/06 11:09:35;;;;;;;20.67;14.87;;;7.00;99.90;;;;;;648210;221;26807;-79
2021/12/06 11:12:03;;;;;;;20.10;15.20;;;7.20;99.90;;;;;;648217;221;26562;-79
2021/12/06 11:14:33;;;;;;;22.07;14.97;;;7.20;99.90;;;;;;649128;219;26538;-79
2021/12/06 11:17:02;;;;;;;19.30;13.50;;;6.90;99.90;;;;;;649778;221;26585;-79
2021/12/06 11:19:31;;;;;;;17.70;13.07;;;6.80;99.90;;;;;;649294;221;26525;-79
2021/12/06 11:21:58;;;;;;;14.70;12.43;;;6.80;99.90;;;;;;649262;221;26526;-79
2021/12/06 11:24:28;;;;;;;16.23;11.53;;;6.90;99.90;;;;;;648921;221;26551;-79
2021/12/06 11:27:03;;;;;;;19.93;14.97;;;7.00;99.90;;;;;;648948;222;26569;-79
2021/12/06 11:29:36;;;;;;;17.80;13.57;;;6.90;99.90;;;;;;648891;222;26615;-79
2021/12/06 11:32:17;;;;;;;18.23;13.50;;;6.90;99.90;;;;;;648931;221;27314;-80
2021/12/06 11:34:48;;;;;;;16.47;12.07;;;7.00;99.90;;;;;;648634;221;26751;-79
2021/12/06 11:37:17;;;;;;;16.90;12.90;;;7.30;99.90;;;;;;648480;217;26515;-79
2021/12/06 11:39:45;;;;;;;16.93;12.37;;;7.30;99.90;;;;;;648589;221;26925;-79
2021/12/06 11:42:12;;;;;;;17.23;12.20;;;7.40;99.90;;;;;;648546;221;26565;-79
2021/12/06 11:44:42;;;;;;;15.63;12.17;;;7.40;99.90;;;;;;648640;222;27251;-79
2021/12/06 11:47:09;;;;;;;19.30;12.67;;;7.30;99.90;;;;;;648469;221;26520;-79
2021/12/06 11:49:39;;;;;;;17.93;11.40;;;7.40;99.90;;;;;;648547;221;26547;-80
2021/12/06 11:52:06;;;;;;;15.10;12.00;;;7.40;99.90;;;;;;648244;221;26764;-80
2021/12/06 11:54:44;;;;;;;15.33;12.00;;;7.40;99.90;;;;;;648278;221;26562;-79
2021/12/06 11:57:20;;;;;;;16.17;12.67;;;7.20;99.90;;;;;;648367;222;26566;-79
2021/12/06 12:00:07;;;;;;;14.03;12.17;;;7.10;99.90;;;;;;648176;221;27237;-79
2021/12/06 12:02:36;;;;;;;15.23;12.13;;;7.10;99.90;;;;;;648151;221;26815;-79
2021/12/06 12:05:08;;;;;;;19.50;12.33;;;7.00;99.90;;;;;;648254;221;26594;-79
2021/12/06 12:07:47;;;;;;;15.70;12.03;;;7.00;99.90;;;;;;648383;221;27311;-79
2021/12/06 12:10:14;;;;;;;16.00;13.37;;;7.00;99.90;;;;;;648316;222;26814;-79
2021/12/06 12:12:41;;;;;;;18.63;11.93;;;7.10;99.90;;;;;;647607;221;26535;-79
2021/12/06 12:15:10;;;;;;;16.37;12.03;;;7.10;99.90;;;;;;647664;221;26573;-79
2021/12/06 12:17:36;;;;;;;17.20;12.63;;;7.00;99.90;;;;;;648389;221;26772;-78
2021/12/06 12:20:04;;;;;;;15.43;11.20;;;7.10;99.90;;;;;;648259;221;26822;-79
2021/12/06 12:22:31;;;;;;;14.83;12.77;;;7.10;99.90;;;;;;648273;221;26569;-79
2021/12/06 12:25:06;;;;;;;13.90;11.57;;;7.20;99.90;;;;;;648375;222;26880;-79
2021/12/06 12:27:34;;;;;;;14.63;11.83;;;7.40;99.90;;;;;;649581;219;26520;-79
2021/12/06 12:29:54;;;;;;;19.27;13.00;;;7.20;99.90;;;;;;649266;221;26553;-80
2021/12/06 12:32:22;;;;;;;16.17;12.30;;;7.20;99.90;;;;;;649319;221;26612;-79
2021/12/06 12:34:50;;;;;;;16.00;11.53;;;7.20;99.90;;;;;;649370;221;26579;-79
2021/12/06 12:37:18;;;;;;;16.83;12.00;;;7.20;99.90;;;;;;648925;222;26584;-79
2021/12/06 12:40:07;;;;;;;16.20;12.30;;;7.20;99.90;;;;;;648907;222;26636;-79
2021/12/06 12:42:34;;;;;;;14.97;12.53;;;7.30;99.90;;;;;;647421;222;26686;-79
2021/12/06 12:45:03;;;;;;;14.30;12.13;;;7.40;99.90;;;;;;648695;222;26524;-79
2021/12/06 12:47:29;;;;;;;17.97;13.00;;;7.40;99.90;;;;;;648590;221;26523;-79